Time;durP1;ratioP1;P1;durP2;ratioP2;P2;SDS_P1;SDS_P2;PMS_P1;PMS_P2;Temp;Humidity;BMP_temperature;BMP_pressure;BME280_temperature;BME280_humidity;BME280_pressure;Samples;Min_cycle;Max_cycle;Signal;HPM_P1;HPM_P2
2021/08/28 00:00:50;;;;;;;9.55;7.12;;;;;;;17.64;60.08;99066.52;1747349;80;21125;-42
2021/08/28 00:03:15;;;;;;;13.62;7.45;;;;;;;17.61;60.35;99061.88;1715367;82;20969;-42
2021/08/28 00:05:41;;;;;;;8.10;6.80;;;;;;;17.61;60.46;99068.72;1769964;80;21020;-42
2021/08/28 00:08:08;;;;;;;10.80;7.47;;;;;;;17.65;60.40;99076.89;1765637;80;21004;-43
2021/08/28 00:10:34;;;;;;;10.32;7.00;;;;;;;17.69;60.34;99074.28;1764830;80;21049;-43
2021/08/28 00:13:01;;;;;;;11.30;7.67;;;;;;;17.71;60.41;99061.53;1762295;80;21136;-42
2021/08/28 00:15:28;;;;;;;10.70;7.67;;;;;;;17.68;60.57;99064.49;1755062;80;21000;-42
2021/08/28 00:17:55;;;;;;;10.35;7.20;;;;;;;17.66;60.73;99058.67;1709063;83;20937;-43
2021/08/28 00:20:21;;;;;;;13.03;7.90;;;;;;;17.66;60.82;99062.78;1706176;83;21046;-42
2021/08/28 00:22:48;;;;;;;11.28;8.60;;;;;;;17.65;60.94;99049.48;1773870;80;21575;-43
2021/08/28 00:25:15;;;;;;;11.75;7.78;;;;;;;17.61;61.03;99035.83;1774207;80;21782;-43
2021/08/28 00:27:42;;;;;;;13.13;8.68;;;;;;;17.57;61.13;99025.45;1754882;80;20894;-43
2021/08/28 00:30:10;;;;;;;10.95;7.42;;;;;;;17.50;61.31;99022.84;1744567;80;20947;-43
2021/08/28 00:32:38;;;;;;;11.12;7.35;;;;;;;17.46;61.39;99022.12;1761040;80;20961;-43
2021/08/28 00:35:06;;;;;;;12.20;7.90;;;;;;;17.52;61.41;99029.28;1774073;80;20997;-43
2021/08/28 00:37:32;;;;;;;15.03;8.23;;;;;;;17.56;61.41;99030.78;1746999;80;22014;-43
2021/08/28 00:39:59;;;;;;;11.68;7.55;;;;;;;17.59;61.48;99029.97;1763911;80;21361;-43
2021/08/28 00:42:26;;;;;;;9.70;7.90;;;;;;;17.62;61.52;99028.38;1764348;80;20942;-43
2021/08/28 00:44:52;;;;;;;11.43;8.45;;;;;;;17.65;61.48;99033.03;1773987;80;21001;-43
2021/08/28 00:47:19;;;;;;;9.23;7.70;;;;;;;17.64;61.49;99023.25;1763866;81;21069;-43
2021/08/28 00:49:48;;;;;;;11.97;8.05;;;;;;;17.62;61.66;99022.28;1759794;80;22317;-43
2021/08/28 00:52:17;;;;;;;12.58;8.93;;;;;;;17.59;61.83;99024.49;1738204;82;21008;-42
2021/08/28 00:54:48;;;;;;;12.23;8.43;;;;;;;17.57;61.95;99032.31;1744001;82;21060;-43
2021/08/28 00:57:14;;;;;;;13.25;8.53;;;;;;;17.59;62.06;99031.34;1747652;82;21008;-43
2021/08/28 00:59:42;;;;;;;10.95;8.35;;;;;;;17.65;62.11;99035.77;1724568;82;21014;-43
2021/08/28 01:02:09;;;;;;;11.65;8.50;;;;;;;17.69;62.10;99035.89;1700234;83;21111;-43
2021/08/28 01:04:53;;;;;;;12.03;8.35;;;;;;;17.71;62.12;99036.27;1711601;82;21610;-43
2021/08/28 01:07:26;;;;;;;10.43;8.03;;;;;;;17.74;62.14;99024.46;1714458;82;21009;-43
2021/08/28 01:10:11;;;;;;;10.85;7.87;;;;;;;17.73;62.17;99023.50;1740201;82;21511;-43
2021/08/28 01:12:48;;;;;;;12.47;7.75;;;;;;;17.67;62.17;99030.66;1733273;82;21027;-43
2021/08/28 01:15:21;;;;;;;10.63;8.25;;;;;;;17.64;62.16;99032.25;1686990;82;21176;-43
2021/08/28 01:17:48;;;;;;;12.20;8.08;;;;;;;17.63;62.17;99029.32;1732951;82;21041;-43
2021/08/28 01:20:32;;;;;;;10.15;6.62;;;;;;;17.59;62.14;99027.83;1724740;82;21049;-42
2021/08/28 01:23:14;;;;;;;14.13;7.10;;;;;;;17.60;62.09;99032.13;1727501;82;20958;-43
2021/08/28 01:26:02;;;;;;;11.28;7.03;;;;;;;17.64;62.00;99033.63;1721926;82;21024;-43
2021/08/28 01:28:34;;;;;;;8.63;6.97;;;;;;;17.66;61.95;99039.48;1721451;82;21892;-43
2021/08/28 01:31:01;;;;;;;11.00;7.40;;;;;;;17.67;62.02;99034.16;1707662;83;21646;-42
2021/08/28 01:33:28;;;;;;;10.28;8.03;;;;;;;17.70;62.07;99038.83;1740998;82;21156;-43
2021/08/28 01:35:55;;;;;;;11.20;7.50;;;;;;;17.73;61.96;99039.35;1742462;82;21005;-42
2021/08/28 01:38:23;;;;;;;9.30;7.10;;;;;;;17.72;61.88;99025.45;1738853;82;21081;-42
2021/08/28 01:40:51;;;;;;;10.32;7.83;;;;;;;17.71;62.00;99030.01;1728996;82;21132;-43
2021/08/28 01:43:18;;;;;;;11.33;7.53;;;;;;;17.71;61.96;99027.27;1725146;82;21072;-43
2021/08/28 01:45:46;;;;;;;12.18;7.28;;;;;;;17.70;61.99;99018.27;1741464;82;21556;-42
2021/08/28 01:48:13;;;;;;;10.38;6.72;;;;;;;17.70;61.98;99019.63;1690197;82;21602;-42
2021/08/28 01:50:42;;;;;;;9.63;7.00;;;;;;;17.74;62.00;99012.72;1751885;80;21081;-42
2021/08/28 01:53:10;;;;;;;10.13;6.80;;;;;;;17.83;61.81;99006.11;1745883;80;21164;-42
2021/08/28 01:55:37;;;;;;;9.60;6.28;;;;;;;17.87;61.70;98999.19;1752334;80;20995;-43
2021/08/28 01:58:05;;;;;;;10.55;6.53;;;;;;;17.89;61.71;98998.19;1748172;80;21100;-43
2021/08/28 02:00:49;;;;;;;9.40;6.85;;;;;;;17.91;61.74;99004.03;1649049;86;21641;-43
2021/08/28 02:03:30;;;;;;;11.00;6.50;;;;;;;17.93;61.92;99013.98;1718091;80;21025;-43
2021/08/28 02:06:02;;;;;;;8.60;6.50;;;;;;;17.96;61.82;99011.80;1750077;80;21127;-43
2021/08/28 02:08:51;;;;;;;7.75;6.47;;;;;;;17.97;61.58;99004.50;1759184;80;21021;-42
2021/08/28 02:11:22;;;;;;;8.15;6.22;;;;;;;17.97;61.65;98994.12;1744454;80;21024;-43
2021/08/28 02:13:57;;;;;;;7.87;6.35;;;;;;;17.93;61.69;98990.08;1710089;82;21053;-43
2021/08/28 02:16:25;;;;;;;9.25;5.97;;;;;;;17.92;61.71;98989.89;1755996;80;21022;-42
2021/08/28 02:19:19;;;;;;;11.97;5.80;;;;;;;17.97;61.72;98990.01;1770392;80;21102;-43
2021/08/28 02:21:52;;;;;;;7.97;5.80;;;;;;;18.02;61.56;98993.64;1747927;80;22302;-43
2021/08/28 02:24:26;;;;;;;10.45;6.40;;;;;;;18.05;61.43;98990.08;1743507;80;20965;-42
2021/08/28 02:27:04;;;;;;;8.75;6.45;;;;;;;18.05;61.23;98987.34;1741758;82;21073;-42
2021/08/28 02:29:37;;;;;;;10.18;6.62;;;;;;;18.06;61.15;98976.52;1750105;80;21085;-42
2021/08/28 02:32:06;;;;;;;10.95;6.03;;;;;;;18.05;61.26;98968.92;1757513;80;21056;-42
2021/08/28 02:34:34;;;;;;;;;;;;;;;18.05;61.35;98972.25;1754243;80;20938;-43
2021/08/28 02:37:02;;;;;;;8.93;6.20;;;;;;;18.05;61.37;98970.88;1763112;80;20584;-43
2021/08/28 02:39:30;;;;;;;8.43;6.60;;;;;;;17.96;61.54;98977.51;1765768;80;20997;-43
2021/08/28 02:41:57;;;;;;;9.13;6.37;;;;;;;17.98;61.40;98982.74;1744644;81;21544;-43
2021/08/28 02:44:25;;;;;;;10.05;6.67;;;;;;;18.00;61.48;98982.33;1751896;80;21121;-43
2021/08/28 02:46:54;;;;;;;6.92;5.90;;;;;;;18.00;61.61;98981.73;1737417;80;21602;-42
2021/08/28 02:49:21;;;;;;;7.53;6.03;;;;;;;18.04;61.65;98985.78;1759953;80;20993;-43
2021/08/28 02:51:50;;;;;;;10.60;6.35;;;;;;;18.10;61.53;98986.86;1719850;81;21000;-43
2021/08/28 02:54:19;;;;;;;7.35;6.03;;;;;;;18.15;61.36;98991.87;1729026;82;21092;-43
2021/08/28 02:56:49;;;;;;;8.15;6.25;;;;;;;18.15;61.36;98998.11;1733678;80;21104;-43
2021/08/28 02:59:17;;;;;;;10.78;7.00;;;;;;;18.16;61.62;98999.66;1725829;82;20962;-43
2021/08/28 03:01:45;;;;;;;9.25;6.42;;;;;;;18.17;61.64;99002.59;1732926;82;21535;-43
2021/08/28 03:04:15;;;;;;;9.63;6.95;;;;;;;18.19;61.90;99003.55;1722832;82;21000;-42
2021/08/28 03:06:42;;;;;;;9.70;6.15;;;;;;;18.21;62.09;98991.55;1717904;82;21088;-43
2021/08/28 03:09:10;;;;;;;7.62;6.47;;;;;;;18.23;62.01;98992.69;1748111;82;21133;-43
2021/08/28 03:11:38;;;;;;;8.08;5.72;;;;;;;18.24;62.31;98992.09;1747820;82;20973;-43
2021/08/28 03:14:05;;;;;;;9.10;6.47;;;;;;;18.29;62.25;98989.46;1748515;82;21530;-42
2021/08/28 03:16:33;;;;;;;9.98;6.30;;;;;;;18.34;62.31;98991.12;1719437;82;21100;-42
2021/08/28 03:19:01;;;;;;;7.58;6.08;;;;;;;18.39;62.02;98993.39;1710903;83;21002;-43
2021/08/28 03:21:29;;;;;;;8.70;5.65;;;;;;;18.42;61.45;99003.52;1712078;83;21102;-43
2021/08/28 03:23:57;;;;;;;8.53;5.90;;;;;;;18.44;62.00;99012.13;1686230;83;21040;-42
2021/08/28 03:26:24;;;;;;;9.83;6.65;;;;;;;18.43;61.49;99011.94;1736185;82;21488;-43
2021/08/28 03:28:52;;;;;;;9.45;5.87;;;;;;;18.40;62.45;99007.86;1717105;82;21054;-43
2021/08/28 03:31:19;;;;;;;8.23;5.72;;;;;;;18.38;63.37;99015.16;1744786;82;21551;-42
2021/08/28 03:33:46;;;;;;;6.78;5.92;;;;;;;18.40;63.21;99027.85;1664025;85;21151;-42
2021/08/28 03:36:15;;;;;;;8.40;5.58;;;;;;;18.43;62.60;99006.45;1699637;84;21040;-43
2021/08/28 03:38:42;;;;;;;7.70;6.03;;;;;;;18.46;62.69;99002.84;1670915;84;21064;-43
2021/08/28 03:41:09;;;;;;;8.53;6.20;;;;;;;18.49;63.48;99007.48;1671803;85;21575;-43
2021/08/28 03:43:37;;;;;;;7.53;5.83;;;;;;;18.50;63.34;99015.13;1671819;85;21033;-42
2021/08/28 03:46:04;;;;;;;10.78;5.87;;;;;;;18.49;63.35;99003.99;1672513;84;21152;-42
2021/08/28 03:48:33;;;;;;;8.25;5.87;;;;;;;18.49;63.43;99004.74;1673795;84;21072;-42
2021/08/28 03:51:00;;;;;;;8.78;6.05;;;;;;;18.44;63.62;99020.95;1699709;83;21074;-43
2021/08/28 03:53:28;;;;;;;7.65;5.80;;;;;;;18.38;63.07;99023.39;1694818;82;21066;-43
2021/08/28 03:55:58;;;;;;;7.08;5.65;;;;;;;18.33;63.18;99030.73;1695884;84;21137;-43
2021/08/28 03:58:25;;;;;;;;;;;;;;;18.32;63.24;99030.55;1700373;83;21201;-42
2021/08/28 04:00:52;;;;;;;8.28;5.90;;;;;;;18.32;63.29;99030.55;1697054;84;20498;-43
2021/08/28 04:03:18;;;;;;;10.13;6.08;;;;;;;18.21;63.78;99027.99;1699111;84;21564;-42
2021/08/28 04:05:46;;;;;;;9.58;6.30;;;;;;;18.25;64.05;99029.30;1696891;84;21065;-43
2021/08/28 04:08:14;;;;;;;8.65;6.10;;;;;;;18.24;63.71;99022.28;1700405;84;21052;-43
2021/08/28 04:10:46;;;;;;;6.70;5.25;;;;;;;18.21;64.11;99021.73;1692731;84;21537;-43
2021/08/28 04:13:16;;;;;;;7.60;5.40;;;;;;;18.24;64.17;99024.43;1684822;84;21585;-43
2021/08/28 04:15:44;;;;;;;10.65;5.95;;;;;;;18.29;64.20;99021.80;1697775;84;21046;-43
2021/08/28 04:18:15;;;;;;;8.10;5.58;;;;;;;18.32;64.17;99020.95;1683684;84;21587;-43
2021/08/28 04:20:44;;;;;;;10.05;5.78;;;;;;;18.32;64.25;99026.44;1678969;83;21088;-43
2021/08/28 04:23:13;;;;;;;8.60;5.92;;;;;;;18.33;64.19;99023.88;1682194;85;21105;-42
2021/08/28 04:25:58;;;;;;;8.90;6.00;;;;;;;18.34;64.08;99022.69;1712883;83;21481;-43
2021/08/28 04:28:27;;;;;;;6.35;5.40;;;;;;;18.31;64.04;99024.88;1697446;83;21600;-43
2021/08/28 04:30:56;;;;;;;7.78;5.37;;;;;;;18.29;64.08;99023.17;1676264;85;21098;-42
2021/08/28 04:33:23;;;;;;;7.03;5.42;;;;;;;18.28;64.11;99025.73;1682273;85;21069;-43
2021/08/28 04:35:50;;;;;;;6.67;5.45;;;;;;;18.31;64.10;99026.25;1674205;85;21183;-42
2021/08/28 04:38:17;;;;;;;8.00;5.67;;;;;;;18.33;64.04;99016.23;1704199;83;21526;-43
2021/08/28 04:40:45;;;;;;;7.45;5.45;;;;;;;18.33;64.21;99021.73;1698089;83;20939;-43
2021/08/28 04:43:12;;;;;;;7.00;5.70;;;;;;;18.35;64.08;99016.61;1706685;83;20999;-42
2021/08/28 04:45:40;;;;;;;7.90;5.40;;;;;;;18.35;63.84;99022.09;1693172;83;21040;-43
2021/08/28 04:48:22;;;;;;;6.58;5.47;;;;;;;18.33;63.83;99026.63;1701768;82;21139;-43
2021/08/28 04:50:49;;;;;;;6.75;4.90;;;;;;;18.32;64.14;99029.18;1719708;82;21156;-43
2021/08/28 04:53:16;;;;;;;8.58;4.85;;;;;;;18.36;64.19;99021.66;1760215;80;21033;-43
2021/08/28 04:55:45;;;;;;;6.95;5.22;;;;;;;18.44;64.05;99023.09;1746975;80;21073;-43
2021/08/28 04:58:12;;;;;;;6.25;5.40;;;;;;;18.49;63.92;99023.95;1759622;80;20978;-43
2021/08/28 05:00:41;;;;;;;7.50;4.92;;;;;;;18.52;63.67;99035.48;1742227;80;21144;-42
2021/08/28 05:03:25;;;;;;;6.90;5.15;;;;;;;18.49;63.27;99041.05;1750551;80;21006;-43
2021/08/28 05:05:54;;;;;;;7.47;5.30;;;;;;;18.44;63.29;99042.91;1745813;80;21021;-43
2021/08/28 05:08:21;;;;;;;7.42;5.55;;;;;;;18.43;63.81;99046.25;1767467;80;21080;-43
2021/08/28 05:10:49;;;;;;;5.95;5.35;;;;;;;18.43;63.98;99044.88;1752277;80;21045;-43
2021/08/28 05:13:16;;;;;;;6.40;5.33;;;;;;;18.44;64.14;99043.69;1754793;80;21535;-43
2021/08/28 05:15:44;;;;;;;6.70;4.95;;;;;;;18.48;64.36;99043.61;1743963;80;21042;-43
2021/08/28 05:18:13;;;;;;;8.25;5.12;;;;;;;18.53;64.00;99041.19;1746612;80;20962;-43
2021/08/28 05:20:39;;;;;;;7.55;5.10;;;;;;;18.53;64.04;99042.56;1748651;80;21093;-43
2021/08/28 05:23:14;;;;;;;7.25;5.42;;;;;;;18.51;63.83;99047.66;1750251;80;21555;-43
2021/08/28 05:25:47;;;;;;;7.42;5.28;;;;;;;18.47;63.87;99048.33;1707697;82;21674;-42
2021/08/28 05:28:13;;;;;;;6.55;5.60;;;;;;;18.44;64.14;99051.14;1743013;82;20933;-43
2021/08/28 05:30:40;;;;;;;7.97;5.83;;;;;;;18.40;64.07;99041.58;1746810;80;20967;-43
2021/08/28 05:33:10;;;;;;;7.55;5.55;;;;;;;18.37;64.13;99042.42;1771557;80;21016;-43
2021/08/28 05:35:37;;;;;;;8.95;5.40;;;;;;;18.39;64.52;99044.17;1753863;80;21605;-43
2021/08/28 05:38:08;;;;;;;7.45;5.72;;;;;;;18.48;64.42;99047.73;1764568;80;21117;-43
2021/08/28 05:40:37;;;;;;;9.98;5.60;;;;;;;18.55;64.57;99045.64;1751440;80;21528;-43
2021/08/28 05:43:04;;;;;;;7.90;6.12;;;;;;;18.57;64.42;99045.23;1743089;82;21595;-43
2021/08/28 05:45:50;;;;;;;8.20;5.72;;;;;;;18.50;64.48;99050.81;1713894;80;21010;-43
2021/08/28 05:48:18;;;;;;;8.53;6.42;;;;;;;18.37;65.04;99057.52;1767646;80;21519;-43
2021/08/28 05:50:45;;;;;;;8.90;6.42;;;;;;;18.30;65.64;99060.38;1750083;80;21093;-43
2021/08/28 05:53:12;;;;;;;9.10;6.20;;;;;;;18.29;66.40;99064.93;1713763;82;20942;-43
2021/08/28 05:55:39;;;;;;;7.53;6.40;;;;;;;18.32;66.67;99067.60;1761239;80;21056;-43
2021/08/28 05:58:06;;;;;;;7.95;6.08;;;;;;;18.31;66.63;99064.67;1762515;80;21467;-43
2021/08/28 06:00:33;;;;;;;7.05;5.90;;;;;;;18.01;66.99;99028.52;1753641;80;20989;-43
2021/08/28 06:03:01;;;;;;;9.33;5.83;;;;;;;18.22;67.63;99064.44;1755732;80;21589;-43
2021/08/28 06:05:28;;;;;;;8.75;5.90;;;;;;;18.22;67.39;99070.70;1781994;80;21636;-44
2021/08/28 06:08:13;;;;;;;6.87;5.67;;;;;;;18.28;67.72;99067.48;1778314;80;21025;-42
2021/08/28 06:10:58;;;;;;;5.85;5.25;;;;;;;18.32;67.83;99065.45;1774369;80;20964;-43
2021/08/28 06:13:32;;;;;;;7.03;5.50;;;;;;;18.32;67.86;99070.34;1715462;80;21518;-42
2021/08/28 06:16:12;;;;;;;6.92;4.90;;;;;;;18.33;67.86;99062.30;1745707;80;21137;-42
2021/08/28 06:18:39;;;;;;;5.47;4.05;;;;;;;18.33;67.21;99060.92;1774997;80;20989;-43
2021/08/28 06:21:06;;;;;;;4.72;4.15;;;;;;;18.38;66.09;99070.65;1762231;80;20993;-43
2021/08/28 06:23:33;;;;;;;5.10;4.47;;;;;;;18.37;66.62;99069.88;1775452;80;21511;-43
2021/08/28 06:26:18;;;;;;;4.92;4.22;;;;;;;18.33;66.73;99067.79;1776025;80;21091;-43
2021/08/28 06:28:44;;;;;;;6.92;4.17;;;;;;;18.31;66.70;99065.27;1751270;81;21070;-43
2021/08/28 06:31:11;;;;;;;5.05;4.25;;;;;;;18.34;67.03;99073.47;1751235;80;21005;-42
2021/08/28 06:33:38;;;;;;;5.85;4.58;;;;;;;18.41;67.20;99078.81;1777515;80;20938;-43
2021/08/28 06:36:04;;;;;;;4.72;4.15;;;;;;;18.42;67.09;99083.12;1767766;80;20989;-43
2021/08/28 06:38:45;;;;;;;4.67;3.35;;;;;;;18.42;67.29;99085.08;1721556;82;21091;-43
2021/08/28 06:41:16;;;;;;;6.95;3.40;;;;;;;18.39;65.74;99094.94;1694600;80;21141;-43
2021/08/28 06:44:01;;;;;;;4.55;3.37;;;;;;;18.37;65.72;99093.20;1761730;80;21871;-43
2021/08/28 06:46:35;;;;;;;4.95;2.87;;;;;;;18.30;65.66;99104.28;1733706;80;21530;-43
2021/08/28 06:49:20;;;;;;;2.95;2.65;;;;;;;18.26;65.54;99107.69;1759788;80;20985;-43
2021/08/28 06:52:05;;;;;;;4.47;2.80;;;;;;;18.21;65.75;99105.41;1742930;81;22532;-43
2021/08/28 06:54:51;;;;;;;3.15;2.67;;;;;;;18.20;65.91;99118.36;1744862;81;21139;-43
2021/08/28 06:57:28;;;;;;;2.47;2.22;;;;;;;18.25;66.14;99117.88;1666865;85;21175;-43
2021/08/28 07:00:05;;;;;;;3.42;2.75;;;;;;;18.29;65.72;99117.07;1757987;81;20986;-43
2021/08/28 07:02:50;;;;;;;3.22;2.60;;;;;;;18.28;65.96;99125.89;1758063;81;20905;-42
2021/08/28 07:06:58;;;;;;;2.72;2.45;;;;;;;18.32;65.91;99125.23;1788171;79;22514;-43
2021/08/28 07:09:25;;;;;;;3.37;2.77;;;;;;;18.26;66.07;99132.38;1777538;80;21394;-43
2021/08/28 07:11:52;;;;;;;3.02;2.58;;;;;;;18.26;66.09;99132.38;1787426;80;21929;-43
2021/08/28 07:14:20;;;;;;;2.72;2.22;;;;;;;18.23;66.54;99139.49;1723174;83;20992;-43
2021/08/28 07:16:46;;;;;;;3.12;2.20;;;;;;;18.20;65.61;99144.42;1709262;82;20988;-43
2021/08/28 07:19:13;;;;;;;3.20;2.25;;;;;;;18.20;64.86;99146.41;1698711;83;21558;-42
2021/08/28 07:21:41;;;;;;;2.40;2.20;;;;;;;18.21;64.47;99145.20;1708158;83;20988;-43
2021/08/28 07:24:08;;;;;;;2.45;2.22;;;;;;;18.19;64.82;99140.74;1726425;81;21112;-43
2021/08/28 07:26:43;;;;;;;3.17;2.12;;;;;;;18.17;64.37;99144.48;1744215;81;21543;-43
2021/08/28 07:29:24;;;;;;;3.12;2.45;;;;;;;18.15;63.27;99155.87;1747226;81;21578;-43
2021/08/28 07:31:51;;;;;;;2.10;1.87;;;;;;;18.10;63.46;99154.20;1756308;81;20989;-43
2021/08/28 07:34:17;;;;;;;3.42;1.92;;;;;;;18.08;63.86;99160.10;1756633;81;21048;-43
2021/08/28 07:36:45;;;;;;;2.40;2.17;;;;;;;18.13;64.17;99159.64;1751901;81;21904;-43
2021/08/28 07:39:11;;;;;;;2.10;1.90;;;;;;;18.13;63.99;99169.23;1707722;83;20976;-43
2021/08/28 07:41:39;;;;;;;2.72;2.10;;;;;;;18.08;64.09;99163.44;1716548;83;21099;-43
2021/08/28 07:44:07;;;;;;;2.37;2.17;;;;;;;18.04;65.00;99171.73;1689415;83;20962;-42
2021/08/28 07:46:34;;;;;;;3.33;1.90;;;;;;;18.02;64.10;99169.98;1712504;83;21036;-43
2021/08/28 07:49:08;;;;;;;2.65;1.72;;;;;;;17.94;63.91;99176.77;1713584;83;21846;-43
2021/08/28 07:51:35;;;;;;;2.50;1.82;;;;;;;17.87;64.57;99178.81;1705057;83;20994;-42
2021/08/28 07:54:03;;;;;;;2.33;1.52;;;;;;;17.79;64.47;99189.89;1723323;83;21555;-43
2021/08/28 07:56:30;;;;;;;1.70;1.60;;;;;;;17.73;64.82;99187.41;1711463;82;20983;-43
2021/08/28 07:58:57;;;;;;;1.77;1.60;;;;;;;17.66;64.84;99190.27;1713134;82;21566;-43
2021/08/28 08:01:25;;;;;;;2.85;1.65;;;;;;;17.67;65.00;99193.16;1724988;83;21134;-43
2021/08/28 08:03:52;;;;;;;1.75;1.65;;;;;;;17.70;65.03;99192.36;1723313;83;20994;-43
2021/08/28 08:06:21;;;;;;;2.10;1.90;;;;;;;17.68;64.74;99199.42;1706522;82;21169;-43
2021/08/28 08:08:57;;;;;;;2.25;1.80;;;;;;;17.66;65.24;99197.70;1670346;84;21125;-43
2021/08/28 08:11:32;;;;;;;1.80;1.50;;;;;;;17.65;65.10;99194.19;1615567;84;21041;-43
2021/08/28 08:14:17;;;;;;;1.45;1.20;;;;;;;17.69;64.57;99195.50;1668324;84;21156;-43
2021/08/28 08:17:03;;;;;;;2.25;1.50;;;;;;;17.73;64.32;99198.38;1656155;84;21099;-43
2021/08/28 08:19:37;;;;;;;1.77;1.67;;;;;;;17.75;64.56;99197.98;1677037;83;21064;-43
2021/08/28 08:22:23;;;;;;;2.05;1.65;;;;;;;17.77;65.11;99205.96;1657273;86;21541;-43
2021/08/28 08:24:52;;;;;;;2.50;1.50;;;;;;;17.77;64.87;99207.33;1694478;82;21029;-43
2021/08/28 08:27:37;;;;;;;1.75;1.42;;;;;;;17.80;64.79;99205.16;1679164;84;21153;-43
2021/08/28 08:30:07;;;;;;;2.35;1.40;;;;;;;17.87;64.67;99207.61;1701441;82;20992;-43
2021/08/28 08:32:39;;;;;;;1.92;1.72;;;;;;;17.91;63.30;99215.22;1703803;82;21031;-42
2021/08/28 08:35:06;;;;;;;1.62;1.52;;;;;;;17.91;63.78;99215.22;1681381;82;21147;-42
2021/08/28 08:37:34;;;;;;;2.60;1.60;;;;;;;17.92;62.82;99220.86;1698278;83;21049;-43
2021/08/28 08:40:01;;;;;;;3.25;1.57;;;;;;;17.90;62.24;99218.55;1691815;83;21096;-43
2021/08/28 08:42:29;;;;;;;2.98;1.70;;;;;;;17.88;62.40;99222.28;1655967;84;21522;-43
2021/08/28 08:44:56;;;;;;;2.35;1.50;;;;;;;17.91;62.79;99231.67;1664477;84;21078;-42
2021/08/28 08:47:24;;;;;;;1.42;1.32;;;;;;;17.96;62.25;99228.47;1676537;84;21501;-42
2021/08/28 08:49:52;;;;;;;1.80;1.62;;;;;;;17.93;62.13;99230.66;1636766;86;21116;-43
2021/08/28 08:52:21;;;;;;;1.98;1.75;;;;;;;17.92;62.92;99234.58;1691173;84;21145;-43
2021/08/28 08:54:51;;;;;;;2.22;1.70;;;;;;;17.91;62.66;99239.91;1658930;86;20997;-43
2021/08/28 08:57:18;;;;;;;2.50;1.70;;;;;;;17.88;63.00;99240.70;1686661;83;20998;-43
2021/08/28 08:59:45;;;;;;;1.62;1.52;;;;;;;17.86;63.01;99243.88;1688948;85;21047;-43
2021/08/28 09:02:11;;;;;;;2.55;1.92;;;;;;;17.87;63.33;99240.52;1698860;83;21029;-43
2021/08/28 09:04:58;;;;;;;2.20;1.70;;;;;;;17.92;63.58;99238.69;1689892;83;21804;-43
2021/08/28 09:07:25;;;;;;;1.90;1.60;;;;;;;18.01;64.02;99243.86;1722281;82;21050;-43
2021/08/28 09:09:51;;;;;;;2.77;2.02;;;;;;;18.06;62.89;99242.02;1718526;82;20997;-42
2021/08/28 09:12:20;;;;;;;2.75;1.80;;;;;;;18.13;62.27;99245.28;1733704;81;21000;-43
2021/08/28 09:14:58;;;;;;;2.15;1.55;;;;;;;18.22;62.81;99249.06;1716188;82;21517;-43
2021/08/28 09:17:24;;;;;;;2.08;1.37;;;;;;;18.39;62.64;99242.38;1736348;81;21310;-43
2021/08/28 09:19:51;;;;;;;1.80;1.65;;;;;;;18.57;60.89;99239.58;1731208;82;21534;-42
2021/08/28 09:22:28;;;;;;;2.12;1.70;;;;;;;18.65;60.91;99245.13;1726722;82;22202;-43
2021/08/28 09:25:01;;;;;;;2.20;1.70;;;;;;;18.77;60.51;99249.86;1712974;82;20986;-43
2021/08/28 09:27:50;;;;;;;2.60;1.45;;;;;;;18.82;60.07;99255.66;1721733;81;21535;-43
2021/08/28 09:30:33;;;;;;;1.95;1.70;;;;;;;18.86;59.90;99253.63;1722542;82;21149;-43
2021/08/28 09:33:04;;;;;;;4.20;1.57;;;;;;;18.82;59.26;99257.62;1711654;82;21037;-43
2021/08/28 09:35:33;;;;;;;1.67;1.57;;;;;;;18.77;60.84;99251.23;1719444;82;20955;-43
2021/08/28 09:38:03;;;;;;;2.95;1.82;;;;;;;18.83;60.04;99245.45;1727021;82;21102;-43
2021/08/28 09:40:35;;;;;;;2.95;1.40;;;;;;;19.01;59.28;99252.80;1721632;82;21050;-43
2021/08/28 09:43:14;;;;;;;1.22;1.10;;;;;;;19.17;56.77;99251.52;1732328;81;21678;-43
2021/08/28 09:45:42;;;;;;;1.40;1.20;;;;;;;19.26;56.47;99252.38;1715339;82;20983;-43
2021/08/28 09:48:11;;;;;;;1.40;1.30;;;;;;;19.27;56.46;99252.52;1725975;80;21091;-43
2021/08/28 09:50:46;;;;;;;1.30;1.20;;;;;;;19.24;55.72;99256.91;1722374;82;21495;-43
2021/08/28 09:53:23;;;;;;;1.10;1.02;;;;;;;19.20;56.42;99261.69;1726933;81;21018;-43
2021/08/28 09:55:56;;;;;;;2.77;1.20;;;;;;;19.15;56.04;99258.64;1732988;81;21125;-43
2021/08/28 09:58:27;;;;;;;1.95;1.25;;;;;;;19.17;56.39;99252.89;1721736;81;21025;-43
2021/08/28 10:00:54;;;;;;;1.85;1.50;;;;;;;19.34;56.07;99252.41;1729481;82;20998;-43
2021/08/28 10:03:28;;;;;;;1.20;1.10;;;;;;;19.60;56.00;99259.03;1713231;82;21006;-43
2021/08/28 10:05:55;;;;;;;1.72;1.05;;;;;;;19.88;55.55;99254.34;1715275;81;21201;-42
2021/08/28 10:08:22;;;;;;;1.40;1.30;;;;;;;20.27;54.18;99252.91;1744989;82;21826;-43
2021/08/28 10:10:50;;;;;;;1.05;0.98;;;;;;;20.57;54.11;99262.11;1741877;81;21089;-43
2021/08/28 10:13:22;;;;;;;1.40;1.30;;;;;;;20.76;52.84;99270.91;1743319;82;21031;-43
2021/08/28 10:15:50;;;;;;;1.10;1.00;;;;;;;20.90;51.27;99272.54;1730897;81;21646;-43
2021/08/28 10:18:16;;;;;;;1.77;1.10;;;;;;;21.08;51.12;99276.41;1719362;82;21041;-43
2021/08/28 10:20:43;;;;;;;1.30;1.20;;;;;;;21.33;50.39;99268.13;1725687;82;21169;-43
2021/08/28 10:23:10;;;;;;;1.82;1.10;;;;;;;21.58;51.02;99266.87;1719434;82;21017;-43
2021/08/28 10:25:39;;;;;;;1.20;1.10;;;;;;;21.78;50.94;99270.25;1712907;82;21061;-43
2021/08/28 10:28:07;;;;;;;1.20;1.10;;;;;;;21.90;50.40;99280.55;1722343;82;20977;-43
2021/08/28 10:30:34;;;;;;;1.20;1.10;;;;;;;21.96;49.35;99277.45;1713185;82;21507;-43
2021/08/28 10:33:01;;;;;;;1.10;1.00;;;;;;;22.02;48.45;99278.46;1713166;82;21133;-43
2021/08/28 10:35:28;;;;;;;1.57;1.25;;;;;;;22.14;46.84;99278.91;1740084;81;21073;-43
2021/08/28 10:37:54;;;;;;;1.20;1.10;;;;;;;22.23;46.71;99272.91;1718460;82;21097;-43
2021/08/28 10:40:27;;;;;;;1.60;1.40;;;;;;;22.35;47.53;99275.52;1717035;82;21052;-42
2021/08/28 10:42:55;;;;;;;1.12;0.98;;;;;;;22.50;46.15;99279.41;1741655;82;21008;-43
2021/08/28 10:45:29;;;;;;;2.62;1.20;;;;;;;22.62;45.80;99276.45;1720219;82;21536;-43
2021/08/28 10:48:14;;;;;;;2.27;1.10;;;;;;;22.71;45.48;99279.35;1717898;82;21004;-43
2021/08/28 10:50:43;;;;;;;1.55;1.22;;;;;;;22.82;44.13;99284.72;1724528;82;21015;-43
2021/08/28 10:53:11;;;;;;;1.30;1.12;;;;;;;22.96;44.38;99278.73;1724129;82;21043;-43
2021/08/28 10:55:44;;;;;;;3.85;1.20;;;;;;;23.13;45.24;99275.22;1718134;81;21074;-43
2021/08/28 10:58:18;;;;;;;1.30;1.07;;;;;;;23.38;44.69;99268.84;1721521;82;21879;-43
2021/08/28 11:00:49;;;;;;;3.42;1.30;;;;;;;23.53;44.18;99283.73;1718359;82;21045;-43
2021/08/28 11:03:29;;;;;;;;;;;;;;;23.57;43.64;99280.87;1733573;82;21605;-43
2021/08/28 11:06:20;;;;;;;2.12;1.30;;;;;;;23.61;43.71;99284.28;1741783;82;20157;-43
2021/08/28 11:08:59;;;;;;;1.42;1.20;;;;;;;23.57;43.24;99294.09;1748946;81;21739;-43
2021/08/28 11:11:37;;;;;;;1.30;1.20;;;;;;;23.77;43.13;99277.16;1730994;82;21464;-43
2021/08/28 11:14:09;;;;;;;1.40;1.30;;;;;;;24.05;42.40;99275.36;1723521;81;21090;-43
2021/08/28 11:16:48;;;;;;;2.15;1.42;;;;;;;24.37;41.59;99281.87;1736457;82;20996;-43
2021/08/28 11:19:29;;;;;;;2.27;1.40;;;;;;;24.64;40.90;99280.59;1733231;82;21043;-43
2021/08/28 11:21:55;;;;;;;1.42;1.30;;;;;;;24.86;40.20;99281.91;1728600;82;21048;-43
2021/08/28 11:24:25;;;;;;;1.98;1.55;;;;;;;25.08;40.85;99286.75;1748964;80;21209;-44
2021/08/28 11:26:54;;;;;;;1.40;1.10;;;;;;;25.27;39.66;99277.84;1732024;82;21028;-43
2021/08/28 11:29:35;;;;;;;1.70;1.20;;;;;;;25.35;39.12;99286.04;1752037;81;21513;-43
2021/08/28 11:32:17;;;;;;;1.65;1.35;;;;;;;25.30;38.71;99275.55;1748201;82;21009;-43
2021/08/28 11:34:55;;;;;;;1.40;1.30;;;;;;;25.18;39.70;99277.83;1750132;81;21005;-44
2021/08/28 11:37:35;;;;;;;2.77;1.40;;;;;;;25.29;39.86;99274.61;1749723;81;21858;-44
2021/08/28 11:40:06;;;;;;;1.62;1.22;;;;;;;25.61;39.63;99279.58;1750186;81;21012;-44
2021/08/28 11:42:33;;;;;;;1.50;1.40;;;;;;;25.98;38.63;99275.39;1722618;81;20929;-43
2021/08/28 11:45:00;;;;;;;1.92;1.45;;;;;;;26.23;37.81;99271.66;1752469;80;21056;-42
2021/08/28 11:47:27;;;;;;;1.30;1.20;;;;;;;26.48;37.51;99267.70;1719519;82;21088;-42
2021/08/28 11:50:00;;;;;;;1.50;1.40;;;;;;;26.60;36.43;99270.13;1715673;82;21154;-42